Notre Dame, IN

4:43 AM EST on January 16, 2019 (GMT -0500)
Swanson Highlands | | Change Station
Active Advisory: Winter Weather Advisory

Elev 797 ft 41.73 °N, 86.21 °W | Updated 22 seconds ago

Overcast
Overcast
31.1 °F
Feels Like 31 °F
N
0.2
Wind Variable Wind from ESE
Gusts 1.1 mph

Today
High -- | Low -- °F
--% Chance of Precip.
Yesterday
High -- | Low -- °F
Precip. -- in
Pressure 30.08 in
Visibility 8.0 miles
Clouds Few 700 ft
Few 1400 ft
Overcast 2100 ft
Windchill 31 °F
Dew Point 30 °F
Humidity 96%
Rainfall 0.00 in
Snow Depth Not available.
8:09 AM 5:40 PM
Waxing Gibbous, 71% visible
SPECI KSBN 160935Z AUTO 27009KT 8SM FEW007 FEW014 OVC021 M01/M02 A3008 RMK AO2 UPE0857SNB0857E07 P0000 T10061017
Pressure 30.08 in
Visibility 8.0 miles
Clouds Few 700 ft
Few 1400 ft
Overcast 2100 ft
Windchill 31 °F
Dew Point 30 °F
Humidity 96%
Rainfall 0.00 in
Snow Depth Not available.
8:09 AM 5:40 PM
Waxing Gibbous, 71% visible
SPECI KSBN 160935Z AUTO 27009KT 8SM FEW007 FEW014 OVC021 M01/M02 A3008 RMK AO2 UPE0857SNB0857E07 P0000 T10061017

Get Your Daily Forecast Email!

Thanks for signing up!

Be on the lookout for a verification email in your inbox.

You'll start receiving severe weather alerts in your inbox..

×

10-Day Weather Forecast

Almanac

Astronomy

Jan. 16, 2019 Rise Set
Actual Time
Civil Twilight
Nautical Twilight
Astronomical Twilight
Moon
Length of Visible Light
Length of Day
Tomorrow will be .
, % of the Moon is Illuminated

Today's Extremes

State Highs State Lows

Community

WunderPhotos

Category 6

Welcome to Category 6. This is the collective home for Weather Underground's featured writeups by Dr. Jeff Masters (right), Bob Henson (left), Chris Burt, and other regular contributors.

Nearby

Air Quality

  Air Quality AQ Index Pollutant
Not available.

Snow Depth

Station Depth Elevation

Earthquake Activity

City Distance Mag. Time & Date
Minimum magnitude displayed is 2.5.

Coastal Water Temperatures

Place Temperature

Stations

Nearby Weather Stations

Station Location Temp. Windchill Dew Point Humidity Wind Precip. Elev Updated Type
                   

Watches & Warnings

Winter Weather Advisory
Issued: 8:34 PM CST Jan. 15, 2019 – National Weather Service

... Winter Weather Advisory now in effect until 10 am EST /9 am
CST/ Wednesday...

* what... light freezing drizzle overnight. Ice accumulations of a
light glaze.

* Where... portions of northern Indiana, southwest Michigan and
Northwest Ohio.

* When... until 10 am EST /9 am CST/ Wednesday.

* Additional details... slippery roads and sidewalks are expected.
The hazardous conditions could impact the Wednesday morning
commute.

Precautionary/preparedness actions...

A Winter Weather Advisory means that periods of freezing drizzle
will cause travel difficulties. Expect slippery roads. Slow down
and use caution while driving.